Time;durP1;ratioP1;P1;durP2;ratioP2;P2;SDS_P1;SDS_P2;PMS_P1;PMS_P2;Temp;Humidity;BMP_temperature;BMP_pressure;BME280_temperature;BME280_humidity;BME280_pressure;Samples;Min_cycle;Max_cycle;Signal;HPM_P1;HPM_P2
2023/10/27 00:10:20;;;;;;;18.53;10.13;;;;;;;19.32;100.00;98766.00;30970341;28;20042;-78
2023/10/27 00:25:23;;;;;;;18.10;9.57;;;;;;;19.21;100.00;98739.31;30966032;28;20058;-77
2023/10/27 00:40:25;;;;;;;17.20;9.70;;;;;;;18.94;100.00;98715.47;30963409;28;20050;-77
2023/10/27 00:55:28;;;;;;;17.37;8.27;;;;;;;18.85;100.00;98707.53;30964405;28;20463;-77
2023/10/27 01:10:30;;;;;;;12.37;7.77;;;;;;;18.80;100.00;98689.06;30955262;28;20039;-76
2023/10/27 01:25:33;;;;;;;12.60;7.60;;;;;;;19.11;100.00;98691.38;30949188;28;20062;-77
2023/10/27 01:40:35;;;;;;;15.33;7.40;;;;;;;19.14;100.00;98698.59;30939378;28;20058;-77
2023/10/27 01:55:37;;;;;;;29.20;9.87;;;;;;;18.93;100.00;98661.72;30955957;28;20494;-76
2023/10/27 02:10:39;;;;;;;56.10;11.57;;;;;;;19.05;100.00;98635.66;30960285;28;20144;-76
2023/10/27 02:25:41;;;;;;;72.90;11.10;;;;;;;19.18;100.00;98641.28;30974903;28;20230;-77
2023/10/27 02:40:43;;;;;;;116.70;14.57;;;;;;;19.48;100.00;98632.31;30978812;28;20185;-79
2023/10/27 02:55:45;;;;;;;69.93;14.80;;;;;;;19.59;100.00;98630.22;30972989;28;20050;-80
2023/10/27 03:10:47;;;;;;;87.63;15.17;;;;;;;19.75;100.00;98599.03;30977144;28;20088;-78
2023/10/27 03:25:50;;;;;;;100.53;15.07;;;;;;;19.79;100.00;98587.72;30970367;28;20051;-78
2023/10/27 03:40:53;;;;;;;73.77;14.60;;;;;;;19.78;100.00;98558.72;30966450;28;20542;-78
2023/10/27 03:55:55;;;;;;;57.53;15.70;;;;;;;19.86;100.00;98532.06;30966480;28;20415;-79
2023/10/27 04:10:58;;;;;;;42.80;14.53;;;;;;;19.83;100.00;98535.13;30959071;28;20046;-78
2023/10/27 04:26:00;;;;;;;43.70;14.77;;;;;;;19.93;100.00;98520.47;30964681;28;20074;-79
2023/10/27 04:41:02;;;;;;;39.50;14.27;;;;;;;19.96;100.00;98530.44;30951206;28;20519;-79
2023/10/27 04:56:04;;;;;;;39.30;14.03;;;;;;;20.27;100.00;98531.78;30962405;28;20456;-78
2023/10/27 05:11:07;;;;;;;44.10;14.80;;;;;;;20.79;100.00;98499.47;30960162;28;20401;-78
2023/10/27 05:26:09;;;;;;;38.80;15.53;;;;;;;21.13;100.00;98496.88;30945396;28;20117;-78
2023/10/27 05:41:11;;;;;;;42.42;14.60;;;;;;;21.63;100.00;98515.28;30959604;28;20173;-78
2023/10/27 05:56:13;;;;;;;34.07;14.67;;;;;;;21.80;100.00;98523.97;30972965;28;20104;-77
2023/10/27 06:11:15;;;;;;;30.00;13.55;;;;;;;22.08;100.00;98564.88;30970652;28;20109;-78
2023/10/27 06:26:20;;;;;;;34.60;13.85;;;;;;;22.17;100.00;98594.09;30973225;28;20066;-80
2023/10/27 06:41:22;;;;;;;31.73;15.15;;;;;;;22.39;100.00;98607.44;30987526;28;20575;-79
2023/10/27 06:56:24;;;;;;;29.13;12.85;;;;;;;22.41;100.00;98624.25;31007523;28;20415;-85
2023/10/27 07:11:26;;;;;;;34.78;13.02;;;;;;;22.58;100.00;98643.97;31024912;28;20073;-83
2023/10/27 07:26:29;;;;;;;31.55;13.18;;;;;;;22.76;100.00;98653.38;31026755;28;20054;-82
2023/10/27 07:41:32;;;;;;;29.80;12.32;;;;;;;23.17;100.00;98661.00;31019040;28;20118;-83
2023/10/27 07:56:34;;;;;;;20.57;9.57;;;;;;;25.42;100.00;98723.69;31008417;28;20097;-82
2023/10/27 08:11:36;;;;;;;20.80;8.55;;;;;;;28.38;100.00;98783.03;30989323;28;20514;-85
2023/10/27 08:26:39;;;;;;;18.73;8.37;;;;;;;28.94;100.00;98832.91;30980792;28;20461;-80
2023/10/27 08:41:41;;;;;;;17.90;7.50;;;;;;;29.53;100.00;98822.28;30970611;28;20046;-80
2023/10/27 08:56:43;;;;;;;;;;;;;;;30.38;81.03;98833.69;30967167;28;20078;-77
2023/10/27 09:11:48;;;;;;;17.40;8.20;;;;;;;30.72;90.52;98838.28;30968435;28;19926;-83
2023/10/27 09:26:51;;;;;;;15.90;7.53;;;;;;;30.24;88.47;98848.66;31002885;28;20050;-77
2023/10/27 09:42:06;;;;;;;14.57;6.32;;;;;;;31.21;74.84;98867.06;30996422;28;20085;-80
2023/10/27 09:57:10;;;;;;;13.40;6.40;;;;;;;31.82;76.72;98837.75;31000245;28;20050;-85
2023/10/27 10:12:12;;;;;;;10.52;5.80;;;;;;;32.15;72.99;98872.28;31000221;28;20519;-87
2023/10/27 10:27:15;;;;;;;12.48;6.10;;;;;;;32.36;65.42;98870.91;30986205;28;20463;-76
2023/10/27 10:42:17;;;;;;;11.60;5.50;;;;;;;32.43;61.18;98875.56;30969712;28;20337;-75
2023/10/27 10:57:23;;;;;;;10.10;4.88;;;;;;;32.72;59.76;98876.13;30969607;28;20141;-75
2023/10/27 11:12:25;;;;;;;10.32;5.68;;;;;;;30.64;63.67;98879.72;30986859;28;20460;-72
2023/10/27 11:27:28;;;;;;;14.48;5.35;;;;;;;30.44;66.23;98881.00;30980405;28;20208;-77
2023/10/27 11:42:30;;;;;;;14.13;5.60;;;;;;;31.41;65.84;98879.75;30965106;28;20050;-73
2023/10/27 12:41:22;;;;;;;7.20;3.50;;;;;;;27.96;62.10;98894.56;31947107;27;20399;-82
2023/10/27 12:56:24;;;;;;;5.07;2.90;;;;;;;27.25;63.48;98904.38;31889129;27;20047;-83
2023/10/27 13:11:27;;;;;;;7.10;3.70;;;;;;;26.68;64.24;98893.72;31976945;27;20050;-82
2023/10/27 13:26:30;;;;;;;8.63;4.70;;;;;;;26.40;65.06;98903.75;31955297;27;20052;-83
2023/10/27 13:41:36;;;;;;;6.10;3.53;;;;;;;25.94;66.96;98905.72;31764175;27;20280;-83
2023/10/27 13:56:39;;;;;;;7.25;3.38;;;;;;;25.74;69.37;98912.91;31765304;27;20487;-82
2023/10/27 14:11:47;;;;;;;7.63;3.35;;;;;;;25.51;71.02;98933.53;31886638;27;20051;-82
2023/10/27 14:26:54;;;;;;;6.18;4.00;;;;;;;25.11;74.03;98937.41;31861582;27;20059;-82
2023/10/27 14:41:56;;;;;;;5.07;3.10;;;;;;;24.91;75.67;98934.66;31879445;27;20047;-84
2023/10/27 14:56:59;;;;;;;9.32;4.50;;;;;;;24.71;76.10;98931.38;31887282;27;20055;-83
2023/10/27 15:12:05;;;;;;;10.05;3.10;;;;;;;24.64;75.84;98934.84;31833206;27;20047;-83
2023/10/27 15:27:07;;;;;;;5.90;2.80;;;;;;;24.72;76.52;98929.34;31796738;27;20051;-83
2023/10/27 15:42:09;;;;;;;5.68;3.90;;;;;;;24.57;76.65;98929.97;31857548;27;20050;-81
2023/10/27 15:57:11;;;;;;;4.50;3.10;;;;;;;24.56;76.54;98933.31;31822722;27;20076;-72
2023/10/27 16:12:14;;;;;;;9.93;3.70;;;;;;;24.27;76.90;98947.09;31880711;27;20047;-85
2023/10/27 16:27:19;;;;;;;6.72;3.22;;;;;;;24.08;76.48;98922.31;31874522;27;20128;-81
2023/10/27 16:42:21;;;;;;;7.97;4.05;;;;;;;23.82;77.13;98919.66;31868739;27;20050;-78
2023/10/27 16:57:25;;;;;;;15.07;6.55;;;;;;;23.27;79.47;98905.66;31868476;27;20530;-85
2023/10/27 17:12:29;;;;;;;12.63;6.33;;;;;;;22.85;81.04;98907.50;31888806;27;20058;-85
2023/10/27 17:27:32;;;;;;;14.93;7.40;;;;;;;22.52;83.36;98889.44;31893328;27;20047;-87
2023/10/27 17:42:34;;;;;;;10.15;5.80;;;;;;;22.37;83.38;98886.44;31872727;27;20048;-88
2023/10/27 17:57:36;;;;;;;14.05;7.13;;;;;;;22.25;84.11;98893.41;31808247;27;20059;-91
2023/10/27 18:12:38;;;;;;;9.90;5.47;;;;;;;21.87;85.97;98887.97;31776516;28;20050;-86
2023/10/27 18:27:42;;;;;;;11.45;4.57;;;;;;;21.77;84.58;98867.50;31771027;28;20063;-89
2023/10/27 18:42:47;;;;;;;;;;;;;;;21.82;84.22;98869.44;31875333;27;20051;-86
2023/10/27 18:57:52;;;;;;;10.00;3.87;;;;;;;21.32;87.75;98843.28;31894838;27;19919;-88
2023/10/27 19:12:54;;;;;;;8.10;4.20;;;;;;;21.11;90.21;98842.28;31893771;27;20065;-89
2023/10/27 19:27:56;;;;;;;7.53;4.30;;;;;;;21.05;91.70;98812.00;31833431;27;20062;-85
2023/10/27 19:42:58;;;;;;;9.00;4.37;;;;;;;21.08;91.84;98801.94;31807507;27;20047;-78
2023/10/27 19:58:01;;;;;;;8.93;4.17;;;;;;;21.17;93.08;98773.22;31865140;27;20150;-79
2023/10/27 20:13:08;;;;;;;10.70;4.93;;;;;;;21.11;94.16;98765.03;31863673;27;20051;-80
2023/10/27 20:28:11;;;;;;;8.80;4.97;;;;;;;20.83;99.43;98767.38;31838741;27;20146;-80
2023/10/27 20:43:13;;;;;;;7.97;4.57;;;;;;;20.65;100.00;98742.03;31787481;27;20051;-85
2023/10/27 20:58:15;;;;;;;13.50;4.63;;;;;;;20.53;100.00;98710.38;31869951;27;20054;-84
2023/10/27 21:13:18;;;;;;;12.73;5.63;;;;;;;20.63;100.00;98656.34;31922578;27;20489;-90
2023/10/27 21:28:20;;;;;;;16.63;5.97;;;;;;;20.67;100.00;98639.50;31854512;27;20059;-86
2023/10/27 21:43:22;;;;;;;15.03;5.33;;;;;;;20.79;100.00;98624.28;31902725;27;20051;-85
2023/10/27 21:58:24;;;;;;;10.10;5.53;;;;;;;20.83;100.00;98585.38;31868974;27;20048;-86
2023/10/27 22:13:32;;;;;;;15.47;6.50;;;;;;;20.79;100.00;98568.41;31797410;27;20085;-86
2023/10/27 22:28:34;;;;;;;17.63;6.10;;;;;;;20.56;100.00;98521.84;31898088;27;20051;-86
2023/10/27 22:43:36;;;;;;;20.77;7.00;;;;;;;20.59;100.00;98473.94;31896570;27;20073;-86
2023/10/27 22:58:38;;;;;;;23.17;8.03;;;;;;;20.64;100.00;98453.81;31780774;27;20058;-87
2023/10/27 23:13:44;;;;;;;22.50;6.70;;;;;;;20.72;100.00;98410.59;31766651;28;20043;-87
2023/10/27 23:28:46;;;;;;;18.63;7.07;;;;;;;20.68;100.00;98357.78;31757076;28;20516;-86
2023/10/27 23:43:49;;;;;;;22.97;9.10;;;;;;;20.97;100.00;98305.59;31817569;27;20053;-87
2023/10/27 23:58:51;;;;;;;26.23;9.40;;;;;;;20.99;100.00;98272.69;31794358;27;20051;-77
